EW1131 Weather Reports


time (UTC)temp
C
wind
direction
speed
KPH
gust
KPH
rain 1hr
cm
rain 24hr
cm
rain mn
cm
humidity
%
barometer
mb
20190426113023 15 286 14.5 29.0 0.00 0.00 0.00 72 1009.4
20190426111613 16 288 11.3 24.1 0.00 0.00 0.00 71 1009.3
20190426110138 16 285 12.9 30.6 0.00 0.00 0.00 70 1009.1
20190426104635 17 292 12.9 32.2 0.00 0.00 0.00 68 1008.9
20190426094722 18 284 16.1 29.0 0.00 0.00 0.00 68 1008.1
20190426093010 17 297 12.9 29.0 0.00 0.00 0.00 68 1007.8
20190426091615 17 283 16.1 32.2 0.00 0.00 0.00 68 1007.6
20190426090121 18 291 11.3 25.7 0.00 0.00 0.00 69 1007.6
20190426084655 18 258 9.7 20.9 0.00 0.00 0.00 68 1007.6
20190426083055 18 274 9.7 19.3 0.00 0.00 0.00 69 1007.5
20190426081614 18 272 6.4 17.7 0.00 0.00 0.00 71 1007.5
20190426073133 16 221 0.0 9.7 0.00 0.00 0.00 78 1007.3
20190426071601 15 238 0.0 8.0 0.00 0.00 0.00 81 1007.0
20190426064636 13 290 0.0 8.0 0.00 0.00 0.00 86 1006.9
20190426063143 13 32 0.0 1.6 0.00 0.00 0.00 85 1006.9
20190426061757 13 32 3.2 8.0 0.00 0.00 0.00 83 1006.7
20190426060124 13 43 0.0 3.2 0.00 0.00 0.00 82 1006.8
20190426051503 12 29 0.0 1.6 0.00 0.00 0.00 86 1006.6
20190426044550 11 28 3.2 9.7 0.00 0.00 0.00 88 1006.5
20190426033017 10 340 0.0 1.6 0.00 0.00 0.00 82 1007.1
20190426031700 11 348 0.0 0.0 0.00 0.00 0.00 81 1007.0
20190426021635 12 346 0.0 8.0 0.00 0.00 0.00 76 1007.2
20190426013039 13 291 1.6 4.8 0.00 0.03 0.00 76 1007.8
20190426010002 13 87 1.6 8.0 0.00 0.03 0.00 76 1007.0
20190426004535 13 84 1.6 12.9 0.00 0.03 0.00 75 1007.2
20190425221607 13 73 1.6 9.7 0.00 0.03 0.00 74 1008.0
20190425201635 14 67 4.8 12.9 0.00 0.03 0.03 70 1008.6
20190425200344 15 49 4.8 9.7 0.00 0.03 0.03 67 1008.6
20190425194657 16 49 0.0 9.7 0.00 0.03 0.03 63 1008.7
20190425193146 17 52 4.8 12.9 0.00 0.03 0.03 58 1008.7
20190425191652 17 88 0.0 9.7 0.00 0.03 0.03 55 1008.7
20190425181610 20 71 1.6 8.0 0.00 0.03 0.03 50 1008.5
20190425174720 20 76 3.2 11.3 0.00 0.03 0.03 47 1008.5
20190425173200 21 75 1.6 9.7 0.00 0.03 0.03 46 1008.4
20190425161510 22 126 6.4 16.1 0.00 0.03 0.03 41 1008.5
20190425160006 22 144 8.0 14.5 0.00 0.03 0.03 41 1008.6
20190425154730 22 159 6.4 16.1 0.00 0.03 0.03 42 1008.7
20190425143112 22 182 8.0 16.1 0.00 0.03 0.03 41 1009.0
20190425141645 23 169 8.0 19.3 0.00 0.03 0.03 41 1009.0
20190425140221 22 232 3.2 14.5 0.00 0.03 0.03 44 1009.1
20190425134610 22 175 9.7 19.3 0.00 0.03 0.03 42 1009.3
20190425133207 22 232 14.5 32.2 0.00 0.03 0.03 41 1009.4
20190425131633 22 200 8.0 22.5 0.00 0.03 0.03 45 1009.2
20190425123006 22 163 6.4 19.3 0.00 0.03 0.03 45 1009.2
20190425121514 22 132 11.3 24.1 0.00 0.03 0.03 44 1009.2